createdAt,value
2023-05-31T00:01:48.526Z,101269.22
2023-05-31T00:04:15.397Z,101264.47
2023-05-31T00:06:45.517Z,101262.00
2023-05-31T00:09:12.277Z,101273.25
2023-05-31T00:11:38.872Z,101274.94
2023-05-31T00:14:05.524Z,101280.16
2023-05-31T00:17:03.421Z,101276.41
2023-05-31T00:19:29.243Z,101278.75
2023-05-31T00:21:58.618Z,101278.09
2023-05-31T00:24:25.275Z,101277.69
2023-05-31T00:26:59.186Z,101291.22
2023-05-31T00:29:39.378Z,101236.53
2023-05-31T00:32:23.174Z,101290.41
2023-05-31T00:34:59.880Z,101239.78
2023-05-31T00:37:28.173Z,101231.38
2023-05-31T00:39:55.094Z,101279.88
2023-05-31T00:42:38.576Z,101284.88
2023-05-31T00:45:19.341Z,101283.63
2023-05-31T00:47:58.229Z,101271.53
2023-05-31T00:50:41.484Z,101285.22
2023-05-31T00:53:10.484Z,101284.47
2023-05-31T00:55:38.039Z,101289.63
2023-05-31T00:58:06.160Z,101289.47
2023-05-31T01:00:36.122Z,101282.69
2023-05-31T01:03:06.603Z,101285.13
2023-05-31T01:05:37.368Z,101287.19
2023-05-31T01:08:04.796Z,101284.88
2023-05-31T01:10:36.295Z,101285.91
2023-05-31T01:13:22.895Z,101298.75
2023-05-31T01:16:15.836Z,101295.44
2023-05-31T01:18:48.089Z,101195.13
2023-05-31T01:21:30.179Z,101288.75
2023-05-31T01:24:05.897Z,101294.97
2023-05-31T01:26:39.046Z,101295.03
2023-05-31T01:29:10.651Z,101296.22
2023-05-31T01:31:42.194Z,101245.47
2023-05-31T01:34:20.491Z,101298.09
2023-05-31T01:36:48.401Z,101250.44
2023-05-31T01:39:15.219Z,101304.06
2023-05-31T01:41:43.338Z,101296.72
2023-05-31T01:44:19.269Z,101305.22
2023-05-31T01:46:46.936Z,101304.72
2023-05-31T01:49:23.545Z,101261.38
2023-05-31T01:52:00.301Z,101256.16
2023-05-31T01:54:26.862Z,101298.59
2023-05-31T01:57:03.681Z,101302.53
2023-05-31T01:59:48.005Z,101297.59
2023-05-31T02:02:25.791Z,101299.06
2023-05-31T02:04:59.964Z,101301.13
2023-05-31T02:07:27.198Z,101298.41
2023-05-31T02:09:53.769Z,101295.06
2023-05-31T02:12:30.722Z,101249.63
2023-05-31T02:14:58.013Z,101292.09
2023-05-31T02:17:32.897Z,101293.66
2023-05-31T02:20:00.362Z,101294.66
2023-05-31T02:22:26.990Z,101288.44
2023-05-31T02:25:02.289Z,101294.16
2023-05-31T02:27:34.656Z,101287.19
2023-05-31T02:30:01.191Z,101286.50
2023-05-31T02:32:28.050Z,101279.13
2023-05-31T02:35:00.034Z,101283.81
2023-05-31T02:37:26.873Z,101295.56
2023-05-31T02:39:55.658Z,101288.41
2023-05-31T02:42:30.909Z,101244.44
2023-05-31T02:45:01.345Z,101292.16
2023-05-31T02:47:28.392Z,101287.06
2023-05-31T02:49:55.039Z,101293.13
2023-05-31T02:52:29.026Z,101291.91
2023-05-31T02:54:56.206Z,101298.69
2023-05-31T02:57:22.921Z,101288.72
2023-05-31T02:59:50.240Z,101298.13
2023-05-31T03:02:24.485Z,101301.91
2023-05-31T03:04:54.521Z,101302.84
2023-05-31T03:07:21.195Z,101295.28
2023-05-31T03:09:47.873Z,101299.84
2023-05-31T03:12:18.005Z,101302.44
2023-05-31T03:14:45.268Z,101303.13
2023-05-31T03:17:11.930Z,101250.25
2023-05-31T03:19:47.642Z,101295.28
2023-05-31T03:22:22.464Z,101308.28
2023-05-31T03:24:59.792Z,101309.50
2023-05-31T03:27:36.650Z,101251.22
2023-05-31T03:30:04.379Z,101305.31
2023-05-31T03:32:35.611Z,101300.41
2023-05-31T03:35:11.100Z,101303.09
2023-05-31T03:37:40.319Z,101302.44
2023-05-31T03:40:07.389Z,101307.53
2023-05-31T03:42:34.175Z,101301.13
2023-05-31T03:45:00.865Z,101303.16
2023-05-31T03:47:31.242Z,101304.66
2023-05-31T03:49:58.012Z,101309.50
2023-05-31T03:52:25.793Z,101257.56
2023-05-31T03:54:52.493Z,101314.59
2023-05-31T03:57:19.143Z,101317.28
2023-05-31T03:59:55.517Z,101322.38
2023-05-31T04:02:22.859Z,101319.50
2023-05-31T04:04:52.514Z,101318.25
2023-05-31T04:07:21.541Z,101319.38
2023-05-31T04:09:52.177Z,101269.94
2023-05-31T04:12:18.820Z,101316.88
2023-05-31T04:14:47.751Z,101312.84
2023-05-31T04:17:14.356Z,101316.59
2023-05-31T04:19:49.657Z,101280.44
2023-05-31T04:22:16.405Z,101311.56
2023-05-31T04:24:43.180Z,101317.97
2023-05-31T04:27:20.089Z,101218.94
2023-05-31T04:29:51.558Z,101316.38
2023-05-31T04:32:22.996Z,101313.13
2023-05-31T04:34:59.048Z,101325.78
2023-05-31T04:37:27.859Z,101321.88
2023-05-31T04:39:56.034Z,101325.53
2023-05-31T04:42:26.833Z,101280.75
2023-05-31T04:44:59.036Z,101334.72
2023-05-31T04:47:31.230Z,101328.03
2023-05-31T04:50:00.857Z,101335.84
2023-05-31T04:52:30.342Z,101340.31
2023-05-31T04:54:59.416Z,101342.88
2023-05-31T04:57:27.677Z,101340.34
2023-05-31T04:59:54.726Z,101341.03
2023-05-31T05:02:22.878Z,101339.28
2023-05-31T05:04:52.319Z,101340.84
2023-05-31T05:07:18.998Z,101346.03
2023-05-31T05:09:45.963Z,101342.88
2023-05-31T05:12:12.784Z,101347.91
2023-05-31T05:14:39.547Z,101345.88
2023-05-31T05:17:09.169Z,101352.59
2023-05-31T05:19:36.602Z,101357.31
2023-05-31T05:22:03.245Z,101355.34
2023-05-31T05:24:29.896Z,101358.91
2023-05-31T05:26:56.836Z,101348.13
2023-05-31T05:29:28.792Z,101264.91
2023-05-31T05:32:04.237Z,101356.81
2023-05-31T05:34:34.635Z,101354.19
2023-05-31T05:37:04.235Z,101351.66
2023-05-31T05:39:33.648Z,101312.00
2023-05-31T05:42:00.392Z,101358.03
2023-05-31T05:44:27.045Z,101358.47
2023-05-31T05:46:53.798Z,101363.88
2023-05-31T05:49:23.508Z,101359.53
2023-05-31T05:51:54.790Z,101361.84
2023-05-31T05:54:22.054Z,101365.56
2023-05-31T05:56:48.618Z,101359.41
2023-05-31T05:59:15.347Z,101356.00
2023-05-31T06:01:44.422Z,101358.84
2023-05-31T06:04:18.810Z,101262.28
2023-05-31T06:06:46.650Z,101366.22
2023-05-31T06:09:13.653Z,101356.56
2023-05-31T06:11:43.606Z,101318.19
2023-05-31T06:14:13.481Z,101361.78
2023-05-31T06:16:40.094Z,101366.78
2023-05-31T06:19:06.771Z,101362.13
2023-05-31T06:21:33.426Z,101364.94
2023-05-31T06:24:01.600Z,101349.41
2023-05-31T06:26:28.303Z,101361.03
2023-05-31T06:29:08.644Z,101312.03
2023-05-31T06:31:37.403Z,101378.69
2023-05-31T06:34:04.162Z,101372.47
2023-05-31T06:36:31.176Z,101381.22
2023-05-31T06:38:57.956Z,101378.81
2023-05-31T06:41:25.211Z,101388.22
2023-05-31T06:43:56.331Z,101385.41
2023-05-31T06:46:24.393Z,101379.91
2023-05-31T06:49:11.654Z,101330.19
2023-05-31T06:51:39.257Z,101374.78
2023-05-31T06:54:06.623Z,101374.00
2023-05-31T06:56:33.244Z,101377.44
2023-05-31T06:59:11.845Z,101369.72
2023-05-31T07:01:42.901Z,101355.03
2023-05-31T07:04:09.617Z,101366.16
2023-05-31T07:06:39.010Z,101362.91
2023-05-31T07:09:07.934Z,101373.22
2023-05-31T07:11:36.166Z,101319.41
2023-05-31T07:14:03.805Z,101369.22
2023-05-31T07:16:30.481Z,101365.47
2023-05-31T07:18:57.037Z,101363.16
2023-05-31T07:21:31.067Z,101364.28
2023-05-31T07:24:04.476Z,101338.66
2023-05-31T07:26:31.162Z,101356.28
2023-05-31T07:28:57.770Z,101361.56
2023-05-31T07:31:24.532Z,101361.28
2023-05-31T07:33:51.228Z,101359.16
2023-05-31T07:36:18.573Z,101357.53
2023-05-31T07:38:45.302Z,101359.66
2023-05-31T07:41:11.881Z,101359.06
2023-05-31T07:43:40.823Z,101363.81
2023-05-31T07:46:07.480Z,101369.03
2023-05-31T07:48:34.984Z,101360.34
2023-05-31T07:51:03.916Z,101360.81
2023-05-31T07:55:57.155Z,101366.75
2023-05-31T07:58:23.807Z,101375.72
2023-05-31T08:00:53.295Z,101373.41
2023-05-31T08:03:20.342Z,101369.00
2023-05-31T08:05:49.494Z,101369.00
2023-05-31T08:08:17.249Z,101313.88
2023-05-31T08:10:43.864Z,101367.75
2023-05-31T08:13:10.689Z,101351.97
2023-05-31T08:15:37.867Z,101354.53
2023-05-31T08:18:04.591Z,101356.22
2023-05-31T08:20:38.304Z,101313.44
2023-05-31T08:23:09.021Z,101358.31
2023-05-31T08:25:41.816Z,101355.66
2023-05-31T08:28:09.492Z,101344.03
2023-05-31T08:30:45.377Z,101304.41
2023-05-31T08:33:14.403Z,101358.06
2023-05-31T08:35:42.129Z,101362.03
2023-05-31T08:38:11.149Z,101365.78
2023-05-31T08:40:37.860Z,101358.06
2023-05-31T08:43:08.731Z,101353.47
2023-05-31T08:45:38.313Z,101358.94
2023-05-31T08:48:23.894Z,101353.50
2023-05-31T08:50:59.137Z,101353.50
2023-05-31T08:53:26.995Z,101267.31
2023-05-31T08:55:55.015Z,101353.72
2023-05-31T08:58:21.946Z,101344.34
2023-05-31T09:00:54.584Z,101355.16
2023-05-31T09:03:27.745Z,101345.19
2023-05-31T09:06:01.431Z,101341.00
2023-05-31T09:08:28.563Z,101349.50
2023-05-31T09:10:55.210Z,101352.56
2023-05-31T09:13:24.629Z,101312.53
2023-05-31T09:15:54.832Z,101351.31
2023-05-31T09:18:22.151Z,101345.63
2023-05-31T09:20:54.661Z,101343.41
2023-05-31T09:23:21.751Z,101340.44
2023-05-31T09:25:53.352Z,101304.06
2023-05-31T09:28:20.925Z,101330.75
2023-05-31T09:31:01.976Z,101328.59
2023-05-31T09:33:38.367Z,101333.09
2023-05-31T09:36:04.936Z,101325.66
2023-05-31T09:38:35.151Z,101323.69
2023-05-31T09:41:19.133Z,101317.63
2023-05-31T09:43:48.229Z,101319.53
2023-05-31T09:46:15.984Z,101317.63
2023-05-31T09:48:43.484Z,101312.22
2023-05-31T09:51:10.778Z,101314.47
2023-05-31T09:53:39.568Z,101308.28
2023-05-31T09:56:09.849Z,101308.72
2023-05-31T09:58:36.469Z,101307.28
2023-05-31T10:01:03.507Z,101301.91
2023-05-31T10:03:30.696Z,101298.25
2023-05-31T10:05:57.408Z,101294.56
2023-05-31T10:08:27.977Z,101301.44
2023-05-31T10:10:56.735Z,101297.28
2023-05-31T10:13:26.891Z,101295.13
2023-05-31T10:15:55.070Z,101299.19
2023-05-31T10:18:22.453Z,101287.03
2023-05-31T10:20:56.846Z,101292.72
2023-05-31T10:23:24.675Z,101292.16
2023-05-31T10:26:03.665Z,101287.00
2023-05-31T10:28:32.883Z,101289.09
2023-05-31T10:31:01.507Z,101294.34
2023-05-31T10:33:31.958Z,101251.81
2023-05-31T10:36:00.397Z,101290.53
2023-05-31T10:38:50.433Z,101289.72
2023-05-31T10:41:25.043Z,101290.31
2023-05-31T10:43:59.174Z,101285.00
2023-05-31T10:46:31.684Z,101290.22
2023-05-31T10:48:59.553Z,101284.13
2023-05-31T10:51:53.534Z,101287.03
2023-05-31T10:54:28.437Z,101238.94
2023-05-31T10:56:55.964Z,101279.72
2023-05-31T10:59:23.610Z,101278.66
2023-05-31T11:01:51.005Z,101282.94
2023-05-31T11:04:26.072Z,101282.25
2023-05-31T11:06:53.928Z,101283.16
2023-05-31T11:09:22.296Z,101283.06
2023-05-31T11:11:50.235Z,101272.38
2023-05-31T11:14:16.846Z,101260.63
2023-05-31T11:16:50.523Z,101273.06
2023-05-31T11:19:18.516Z,101276.50
2023-05-31T11:21:51.709Z,101266.19
2023-05-31T11:24:30.870Z,101275.91
2023-05-31T11:27:06.702Z,101272.47
2023-05-31T11:29:45.943Z,101279.88
2023-05-31T11:32:12.859Z,101280.41
2023-05-31T11:35:00.235Z,101282.06
2023-05-31T11:37:31.270Z,101276.94
2023-05-31T11:40:07.308Z,101224.97
2023-05-31T11:42:38.268Z,101259.66
2023-05-31T11:45:15.053Z,101271.53
2023-05-31T11:47:53.054Z,101229.72
2023-05-31T11:50:20.879Z,101275.91
2023-05-31T11:52:48.126Z,101267.31
2023-05-31T11:55:20.851Z,101257.59
2023-05-31T11:58:02.843Z,101231.47
2023-05-31T12:00:30.814Z,101249.88
2023-05-31T12:03:07.182Z,101244.28
2023-05-31T12:05:34.005Z,101247.19
2023-05-31T12:08:07.202Z,101244.19
2023-05-31T12:10:34.452Z,101240.56
2023-05-31T12:13:08.669Z,101243.13
2023-05-31T12:15:50.894Z,101239.94
2023-05-31T12:18:17.493Z,101235.34
2023-05-31T12:20:44.212Z,101235.00
2023-05-31T12:23:12.049Z,101232.38
2023-05-31T12:25:44.259Z,101239.09
2023-05-31T12:28:15.236Z,101199.69
2023-05-31T12:30:47.569Z,101239.63
2023-05-31T12:33:14.454Z,101234.50
2023-05-31T12:35:45.920Z,101230.19
2023-05-31T12:38:12.775Z,101224.13
2023-05-31T12:40:49.543Z,101223.38
2023-05-31T12:43:20.189Z,101170.38
2023-05-31T12:45:47.055Z,101216.22
2023-05-31T12:48:28.118Z,101211.97
2023-05-31T12:51:02.496Z,101215.28
2023-05-31T12:53:31.326Z,101216.09
2023-05-31T12:55:58.199Z,101204.44
2023-05-31T12:58:28.938Z,101192.94
2023-05-31T13:01:01.792Z,101208.53
2023-05-31T13:03:37.841Z,101211.41
2023-05-31T13:06:10.783Z,101211.91
2023-05-31T13:08:39.141Z,101209.03
2023-05-31T13:11:05.821Z,101210.22
2023-05-31T13:13:32.473Z,101206.53
2023-05-31T13:16:02.954Z,101205.66
2023-05-31T13:18:30.450Z,101205.84
2023-05-31T13:20:59.827Z,101205.97
2023-05-31T13:23:30.488Z,101207.13
2023-05-31T13:26:05.336Z,101182.06
2023-05-31T13:28:35.881Z,101203.34
2023-05-31T13:31:02.814Z,101209.66
2023-05-31T13:33:37.231Z,101176.91
2023-05-31T13:36:08.727Z,101207.22
2023-05-31T13:38:35.508Z,101198.44
2023-05-31T13:41:02.327Z,101199.00
2023-05-31T13:43:30.875Z,101184.44
2023-05-31T13:46:03.728Z,101188.84
2023-05-31T13:48:30.427Z,101188.00
2023-05-31T13:50:57.008Z,101184.44
2023-05-31T13:53:27.805Z,101133.78
2023-05-31T13:56:03.272Z,101186.38
2023-05-31T13:58:34.513Z,101189.97
2023-05-31T14:01:04.422Z,101144.81
2023-05-31T14:03:33.366Z,101180.84
2023-05-31T14:06:01.140Z,101187.47
2023-05-31T14:08:28.237Z,101186.91
2023-05-31T14:10:59.189Z,101131.63
2023-05-31T14:13:26.096Z,101182.72
2023-05-31T14:15:55.101Z,101180.84
2023-05-31T14:18:21.696Z,101183.31
2023-05-31T14:20:48.626Z,101181.97
2023-05-31T14:23:15.356Z,101182.25
2023-05-31T14:25:42.076Z,101186.41
2023-05-31T14:28:13.663Z,101179.28
2023-05-31T14:30:40.312Z,101188.28
2023-05-31T14:33:07.478Z,101189.28
2023-05-31T14:35:34.644Z,101185.50
2023-05-31T14:38:20.941Z,101191.88
2023-05-31T14:40:59.036Z,101189.78
2023-05-31T14:43:34.848Z,101140.75
2023-05-31T14:46:05.201Z,101196.41
2023-05-31T14:48:34.118Z,101184.78
2023-05-31T14:51:00.930Z,101201.38
2023-05-31T14:53:41.223Z,101196.81
2023-05-31T14:56:17.960Z,101193.59
2023-05-31T14:58:47.972Z,101202.03
2023-05-31T15:01:16.227Z,101202.13
2023-05-31T15:03:49.516Z,101154.16
2023-05-31T15:06:16.862Z,101203.13
2023-05-31T15:08:56.001Z,101204.59
2023-05-31T15:11:31.612Z,101198.41
2023-05-31T15:14:01.632Z,101200.22
2023-05-31T15:16:28.754Z,101197.81
2023-05-31T15:18:55.977Z,101203.84
2023-05-31T15:21:24.432Z,101197.25
2023-05-31T15:23:56.900Z,101160.84
2023-05-31T15:26:28.292Z,101197.38
2023-05-31T15:28:58.119Z,101195.72
2023-05-31T15:31:25.415Z,101194.16
2023-05-31T15:33:52.971Z,101197.03
2023-05-31T15:36:23.849Z,101192.63
2023-05-31T15:38:55.564Z,101193.44
2023-05-31T15:41:23.973Z,101194.28
2023-05-31T15:43:50.650Z,101192.63
2023-05-31T15:46:17.360Z,101200.34
2023-05-31T15:48:44.131Z,101185.38
2023-05-31T15:51:12.241Z,101191.91
2023-05-31T15:53:47.042Z,101183.81
2023-05-31T15:56:22.184Z,101182.53
2023-05-31T15:58:56.615Z,101187.81
2023-05-31T16:01:23.932Z,101182.56
2023-05-31T16:03:51.016Z,101184.34
2023-05-31T16:06:19.220Z,101185.88
2023-05-31T16:08:45.869Z,101180.69
2023-05-31T16:11:15.959Z,101176.06
2023-05-31T16:13:42.825Z,101184.53
2023-05-31T16:16:09.426Z,101185.38
2023-05-31T16:18:36.127Z,101178.00
2023-05-31T16:21:02.985Z,101181.31
2023-05-31T16:23:39.553Z,101178.00
2023-05-31T16:26:16.721Z,101178.88
2023-05-31T16:28:44.381Z,101174.91
2023-05-31T16:31:14.709Z,101162.00
2023-05-31T16:33:41.949Z,101177.31
2023-05-31T16:36:08.639Z,101173.06
2023-05-31T16:38:35.436Z,101172.59
2023-05-31T16:41:02.173Z,101167.28
2023-05-31T16:43:35.405Z,101166.66
2023-05-31T16:46:05.279Z,101170.13
2023-05-31T16:48:32.265Z,101177.84
2023-05-31T16:51:05.363Z,101181.03
2023-05-31T16:53:32.105Z,101172.38
2023-05-31T16:56:07.143Z,101173.53
2023-05-31T16:58:42.598Z,101180.16
2023-05-31T17:04:00.067Z,101174.06
2023-05-31T17:06:26.923Z,101180.16
2023-05-31T17:08:53.589Z,101177.53
2023-05-31T17:11:20.368Z,101180.63
2023-05-31T17:13:48.888Z,101172.09
2023-05-31T17:16:15.794Z,101151.97
2023-05-31T17:18:45.193Z,101176.16
2023-05-31T17:21:12.443Z,101179.97
2023-05-31T17:23:39.025Z,101180.03
2023-05-31T17:26:05.727Z,101186.06
2023-05-31T17:28:32.335Z,101192.13
2023-05-31T17:31:00.971Z,101196.16
2023-05-31T17:33:33.118Z,101200.53
2023-05-31T17:36:00.411Z,101205.53
2023-05-31T17:38:33.178Z,101201.19
2023-05-31T17:41:00.783Z,101163.31
2023-05-31T17:43:27.755Z,101214.94
2023-05-31T17:45:55.141Z,101212.34
2023-05-31T17:48:25.456Z,101173.78
2023-05-31T17:50:52.748Z,101212.81
2023-05-31T17:53:19.330Z,101214.56
2023-05-31T17:55:45.995Z,101213.41
2023-05-31T17:58:16.767Z,101164.75
2023-05-31T18:00:43.392Z,101219.88
2023-05-31T18:03:10.195Z,101216.41
2023-05-31T18:05:40.511Z,101210.41
2023-05-31T18:08:07.302Z,101217.28
2023-05-31T18:10:33.868Z,101215.78
2023-05-31T18:13:00.560Z,101217.78
2023-05-31T18:15:27.214Z,101215.59
2023-05-31T18:17:53.808Z,101216.13
2023-05-31T18:20:20.632Z,101216.75
2023-05-31T18:22:47.203Z,101216.88
2023-05-31T18:25:13.785Z,101219.78
2023-05-31T18:27:40.917Z,101222.81
2023-05-31T18:30:07.792Z,101225.56
2023-05-31T18:32:34.693Z,101219.59
2023-05-31T18:35:01.623Z,101223.28
2023-05-31T18:37:36.172Z,101169.47
2023-05-31T18:40:03.443Z,101230.75
2023-05-31T18:42:30.463Z,101230.41
2023-05-31T18:44:57.235Z,101229.00
2023-05-31T18:47:32.583Z,101235.31
2023-05-31T18:50:01.157Z,101230.31
2023-05-31T18:52:29.137Z,101232.72
2023-05-31T18:54:56.104Z,101229.28
2023-05-31T18:57:22.713Z,101237.53
2023-05-31T18:59:49.638Z,101239.91
2023-05-31T19:02:16.253Z,101241.19
2023-05-31T19:04:42.967Z,101243.50
2023-05-31T19:07:09.977Z,101240.00
2023-05-31T19:09:36.637Z,101247.28
2023-05-31T19:12:03.650Z,101248.81
2023-05-31T19:14:30.304Z,101260.38
2023-05-31T19:16:57.003Z,101262.06
2023-05-31T19:19:23.546Z,101253.53
2023-05-31T19:21:50.139Z,101265.00
2023-05-31T19:24:16.753Z,101266.28
2023-05-31T19:26:43.399Z,101275.31
2023-05-31T19:29:11.503Z,101286.19
2023-05-31T19:31:38.181Z,101289.56
2023-05-31T19:34:04.902Z,101292.28
2023-05-31T19:36:32.250Z,101289.16
2023-05-31T19:39:02.275Z,101290.00
2023-05-31T19:41:30.282Z,101283.94
2023-05-31T19:43:56.825Z,101285.38
2023-05-31T19:46:28.439Z,101239.94
2023-05-31T19:48:58.127Z,101294.00
2023-05-31T19:51:29.103Z,101301.75
2023-05-31T19:53:55.879Z,101293.41
2023-05-31T19:56:25.731Z,101300.69
2023-05-31T19:58:52.579Z,101303.84
2023-05-31T20:01:19.638Z,101294.66
2023-05-31T20:03:46.424Z,101297.78
2023-05-31T20:06:23.243Z,101291.34
2023-05-31T20:08:50.306Z,101292.78
2023-05-31T20:11:17.615Z,101295.50
2023-05-31T20:13:44.106Z,101302.63
2023-05-31T20:16:12.135Z,101293.00
2023-05-31T20:18:38.998Z,101298.84
2023-05-31T20:21:07.356Z,101303.44
2023-05-31T20:23:33.938Z,101299.47
2023-05-31T20:26:00.700Z,101294.66
2023-05-31T20:28:27.490Z,101297.38
2023-05-31T20:30:56.210Z,101293.41
2023-05-31T20:33:22.952Z,101290.50
2023-05-31T20:35:53.376Z,101292.59
2023-05-31T20:38:21.133Z,101242.88
2023-05-31T20:40:47.771Z,101294.66
2023-05-31T20:43:18.000Z,101199.31
2023-05-31T20:45:47.222Z,101290.94
2023-05-31T20:48:13.844Z,101291.56
2023-05-31T20:50:45.479Z,101237.47
2023-05-31T20:53:12.089Z,101286.53
2023-05-31T20:55:41.779Z,101282.59
2023-05-31T20:58:09.483Z,101286.69
2023-05-31T21:00:36.525Z,101292.09
2023-05-31T21:03:03.323Z,101292.72
2023-05-31T21:05:34.599Z,101204.06
2023-05-31T21:08:04.747Z,101291.72
2023-05-31T21:10:31.321Z,101297.31
2023-05-31T21:12:58.051Z,101298.34
2023-05-31T21:15:34.657Z,101251.56
2023-05-31T21:18:13.521Z,101300.03
2023-05-31T21:20:43.253Z,101300.88
2023-05-31T21:23:09.925Z,101295.19
2023-05-31T21:25:38.980Z,101299.31
2023-05-31T21:28:05.991Z,101296.59
2023-05-31T21:30:37.244Z,101249.41
2023-05-31T21:33:04.052Z,101290.56
2023-05-31T21:35:32.969Z,101296.19
2023-05-31T21:38:03.003Z,101294.13
2023-05-31T21:40:30.294Z,101299.09
2023-05-31T21:42:57.068Z,101298.66
2023-05-31T21:45:23.754Z,101296.16
2023-05-31T21:47:51.452Z,101298.22
2023-05-31T21:50:18.145Z,101299.06
2023-05-31T21:52:45.236Z,101298.59
2023-05-31T21:55:12.052Z,101301.94
2023-05-31T21:57:38.856Z,101301.72
2023-05-31T22:00:09.372Z,101307.16
2023-05-31T22:02:37.750Z,101255.97
2023-05-31T22:05:05.386Z,101306.09
2023-05-31T22:07:38.089Z,101317.28
2023-05-31T22:10:06.487Z,101295.81
2023-05-31T22:12:34.200Z,101310.44
2023-05-31T22:15:02.201Z,101308.91
2023-05-31T22:17:29.080Z,101318.25
2023-05-31T22:20:03.658Z,101267.28
2023-05-31T22:22:30.703Z,101317.16
2023-05-31T22:25:09.564Z,101315.47
2023-05-31T22:27:40.308Z,101316.06
2023-05-31T22:30:09.487Z,101311.44
2023-05-31T22:32:39.710Z,101316.13
2023-05-31T22:35:09.040Z,101272.59
2023-05-31T22:37:36.184Z,101318.81
2023-05-31T22:40:15.012Z,101312.81
2023-05-31T22:42:42.418Z,101313.16
2023-05-31T22:45:09.625Z,101317.44
2023-05-31T22:47:36.812Z,101320.91
2023-05-31T22:50:05.640Z,101317.31
2023-05-31T22:52:40.940Z,101319.56
2023-05-31T22:55:11.015Z,101279.66
2023-05-31T22:57:40.161Z,101317.06
2023-05-31T23:00:11.984Z,101325.13
2023-05-31T23:02:39.958Z,101322.81
2023-05-31T23:05:13.261Z,101322.09
2023-05-31T23:07:42.918Z,101317.56
2023-05-31T23:10:12.034Z,101310.69
2023-05-31T23:12:54.088Z,101311.91
2023-05-31T23:15:22.173Z,101321.69
2023-05-31T23:17:50.463Z,101317.84
2023-05-31T23:20:17.635Z,101304.47
2023-05-31T23:22:45.201Z,101312.25
2023-05-31T23:25:12.532Z,101312.06
2023-05-31T23:27:39.720Z,101300.38
2023-05-31T23:30:07.243Z,101305.56
2023-05-31T23:32:34.015Z,101303.81
2023-05-31T23:35:17.085Z,101305.88
2023-05-31T23:38:01.655Z,101305.88
2023-05-31T23:40:32.147Z,101308.31
2023-05-31T23:42:58.773Z,101301.19
2023-05-31T23:45:35.292Z,101302.41
2023-05-31T23:48:02.653Z,101302.00
2023-05-31T23:50:29.418Z,101299.97
2023-05-31T23:52:56.949Z,101300.72
2023-05-31T23:55:25.535Z,101293.97
2023-05-31T23:57:52.556Z,101304.06
